• Join FlightAware (Why Join?)
  • Login
  • US Flag 
02:33AM EDT


 

Airport Tracker/Info


-or-


 

Live Flight TrackerFlight Track Log ✈ GJS3706 ✈ 28-Jun-2013 ✈ KORD - KALB

Flight Track Log - Related Links

Times and Time Zones

All times are in EDT time to prevent confusion due to time zone crossing. See the GJS3706 flight status page for this flight to view local times or setup timezone preferences in your user account.

Time Position Orientation Groundspeed Altitude Reporting Facility
EDT Latitude Longitude Course Direction KTS MPH feet Rate Location/Type
08:59AM 42.0333 -87.9333 86° East 195 224 3,100  Level Chicago TRACON
09:00AM 42.0667 -87.8833 48° Northeast 247 284 4,900 2,220 Climbing Chicago TRACON
09:01AM 42.0833 -87.7833 77° East 286 329 7,300 2,520 Climbing Chicago TRACON
09:02AM 42.1659 -87.3523 66° East  Level FlightAware Approximate
09:02AM 42.1167 -87.6833 66° East 299 344 10,000  Level Chicago TRACON
09:03AM 42.2133 -87.2102 66° East  Level FlightAware Approximate
09:04AM 42.2607 -87.0679 66° East  Level FlightAware Approximate
09:04AM 42.1544 -87.5325 71° East 305 351 13,300  Level Chicago Center
09:05AM 42.2709 -86.9137 86° East  Level FlightAware Approximate
09:05AM 42.1669 -87.4122 82° East 330 380 15,500  Level Chicago Center
09:06AM 42.1736 -87.2778 86° East 358 412 16,600 1,380 Climbing Chicago Center
09:07AM 42.1808 -87.1306 86° East 390 449 18,400 1,740 Climbing Chicago Center
09:08AM 42.1881 -86.9800 86° East 401 461 20,300 1,860 Climbing Chicago Center
09:09AM 42.1972 -86.7958 86° East 411 473 22,300 1,380 Climbing Chicago Center
09:10AM 42.2028 -86.6658 87° East 420 483 23,200 1,140 Climbing Chicago Center
09:11AM 42.2119 -86.4667 86° East 442 509 24,700 1,380 Climbing Chicago Center
09:12AM 42.2194 -86.2981 87° East 449 517 26,100 1,320 Climbing Chicago Center
09:13AM 42.2278 -86.1292 86° East 450 518 27,500 1,200 Climbing Chicago Center
09:14AM 42.2336 -85.9603 87° East 450 518 28,600 1,080 Climbing Chicago Center
09:15AM 42.2411 -85.7697 87° East 458 527 29,800 1,020 Climbing Chicago Center
09:16AM 42.2481 -85.5956 87° East 467 537 30,800 960 Climbing Chicago Center
09:17AM 42.2547 -85.4192 87° East 474 545 31,800 900 Climbing Chicago Center
09:18AM 42.2611 -85.2417 87° East 476 548 32,700 720 Climbing Chicago Center
09:19AM 42.2681 -85.0617 87° East 482 555 33,300 720 Climbing Chicago Center
09:20AM 42.2756 -84.8425 87° East 487 560 34,200 840 Climbing Chicago Center
09:21AM 42.2892 -84.6611 84° East 486 559 35,100 720 Climbing Chicago Center
09:22AM 42.3053 -84.4828 83° East 483 556 35,800 600 Climbing Chicago Center
09:23AM 42.3150 -84.3547 84° East 475 547 36,200 540 Climbing Cleveland Center
09:24AM 42.3292 -84.1728 84° East 480 552 36,700 360 Climbing Cleveland Center
09:25AM 42.3453 -83.9883 83° East 480 552 37,000 120 Climbing Cleveland Center
09:26AM 42.3608 -83.8064 83° East 480 552 37,000  Level Cleveland Center
09:27AM 42.3803 -83.6275 82° East 480 552 37,000  Level Cleveland Center
09:28AM 42.3908 -83.4592 85° East 487 560 37,000  Level Cleveland Center
09:29AM 42.4036 -83.2828 84° East 478 550 37,000  Level Cleveland Center
09:30AM 42.4181 -83.1006 84° East 478 550 37,000  Level Cleveland Center
09:31AM 42.4322 -82.9208 84° East 478 550 37,000  Level Cleveland Center
09:32AM 42.4439 -82.7469 85° East 478 550 37,000  Level Cleveland Center
09:33AM 42.4556 -82.5672 85° East 478 550 37,000  Level Cleveland Center
09:34AM 42.4689 -82.3875 84° East 478 550 37,000  Level Cleveland Center
09:35AM 42.4819 -82.2075 84° East 478 550 37,000  Level Cleveland Center
09:36AM 42.4950 -82.0250 84° East 478 550 37,000  Level Cleveland Center
09:37AM 42.5053 -81.8478 85° East 478 550 37,000  Level Cleveland Center
09:38AM 42.5197 -81.6733 84° East 478 550 37,000  Level Cleveland Center
09:39AM 42.5294 -81.4989 86° East 478 550 37,000  Level Cleveland Center
09:40AM 42.5411 -81.3131 85° East 478 550 37,000  Level Cleveland Center
09:41AM 42.5525 -81.1411 85° East 478 550 37,000  Level Cleveland Center
09:42AM 42.5639 -80.9667 85° East 467 537 37,000  Level Cleveland Center
09:43AM 42.5725 -80.7719 86° East 461 531 37,000  Level Cleveland Center
09:44AM 42.5831 -80.6000 85° East 461 531 37,000  Level Cleveland Center
09:45AM 42.5914 -80.4253 86° East 461 531 37,000 -360 Level Cleveland Center
09:46AM 42.6056 -80.2589 83° East 461 531 36,300 -900 Descending Cleveland Center
09:47AM 42.6383 -80.0950 75° East 455 524 35,300 -960 Descending Cleveland Center
09:48AM 42.6606 -79.9311 79° East 449 517 34,400 -900 Descending Cleveland Center
09:49AM 42.6658 -79.7644 87° East 444 511 33,600 -660 Descending Cleveland Center
09:50AM 42.6706 -79.5919 88° East 444 511 33,100 -480 Descending Cleveland Center
09:51AM 42.6753 -79.4169 88° East 449 517 32,700 -720 Descending Cleveland Center
09:52AM 42.6797 -79.2472 88° East 449 517 31,700 -1,020 Descending Cleveland Center
09:53AM 42.6881 -79.0747 86° East 455 524 30,700 -900 Descending Cleveland Center
09:54AM 42.6961 -78.9053 86° East 455 524 30,000 -600 Descending Cleveland Center
09:55AM 42.7019 -78.7383 87° East 455 524 29,500 -540 Descending Cleveland Center
09:56AM 42.7053 -78.5686 88° East 455 524 29,000 -300 Descending Cleveland Center
09:57AM 42.7106 -78.3989 88° East 450 518 29,000  Level Cleveland Center
09:58AM 42.7156 -78.2319 88° East 445 512 29,000  Level Cleveland Center
09:59AM 42.7183 -78.0625 89° East 440 506 29,000  Level Cleveland Center
10:00AM 42.7228 -77.8897 88° East 445 512 29,000  Level Cleveland Center
10:01AM 42.7292 -77.7228 87° East 445 512 29,000  Level Cleveland Center
10:02AM 42.7328 -77.5444 88° East 452 520 29,000  Level Cleveland Center
10:03AM 42.7350 -77.3917 89° East 452 520 29,000  Level Cleveland Center
10:05AM 42.7389 -77.0883 89° East 445 512 29,000  Level Boston Center
10:06AM 42.7417 -76.9161 89° East 450 518 29,000  Level Boston Center
10:07AM 42.7442 -76.7436 89° East 455 524 29,000 -60 Level Boston Center
10:08AM 42.7442 -76.5711 90° East 455 524 28,900 -780 Descending Boston Center
10:09AM 42.7231 -76.4031 100° East 460 529 27,500 -1,320 Descending Boston Center
10:10AM 42.7019 -76.2319 99° East 460 529 26,300 -780 Descending Boston Center
10:11AM 42.6864 -76.0672 97° East 446 513 26,000 -480 Descending Boston Center
10:12AM 42.6939 -75.8981 86° East 446 513 25,400 -1,320 Descending Boston Center
10:13AM 42.7003 -75.7458 87° East 446 513 23,400 -1,800 Descending Boston Center
10:14AM 42.7042 -75.6161 88° East 440 506 21,800 -2,040 Descending Boston Center
10:15AM 42.7092 -75.4269 88° East 428 493 19,400 -2,400 Descending Boston Center
10:16AM 42.7153 -75.2689 87° East 412 474 17,000 -2,100 Descending Boston Center
10:17AM 42.7189 -75.1250 88° East 401 461 15,200 -1,680 Descending Boston Center
10:18AM 42.7222 -74.9753 88° East 396 456 13,700 -1,620 Descending Boston Center
10:18AM 42.7378 -74.8317 82° East 386 444 12,200 -1,380 Descending Boston Center
10:19AM 42.7739 -74.6972 70° East 375 432 11,100 -600 Descending Boston Center
10:20AM 42.8056 -74.5767 70° East 330 380 11,000 -540 Descending Boston Center
10:22AM 42.8308 -74.4475 75° East 319 367 10,000 -1,380 Descending Boston Center
10:22AM 42.8472 -74.3347 79° East 310 357 8,300 -1,800 Descending Boston Center
10:24AM 42.8678 -74.2219 76° East 308 354 6,500 -1,680 Descending Boston Center
10:25AM 42.8800 -74.1175 81° East 308 354 4,900 -1,620 Descending Boston Center
10:26AM 42.8983 -73.9933 79° East 296 341 3,200 -1,140 Descending Boston Center
10:27AM 42.9164 -73.8889 77° East 255 293 2,500 -660 Descending Boston Center